Date,TemperatureHighF,TemperatureAvgF,TemperatureLowF,DewpointHighF,DewpointAvgF,DewpointLowF,HumidityHigh,HumidityAvg,HumidityLow,PressureMaxIn,PressureMinIn,WindSpeedMaxMPH,WindSpeedAvgMPH,GustSpeedMaxMPH,PrecipitationSumIn
2013-4-1,73,39,64,-100,-100,-100,0,0,100,30.03,29.92,17,7,20,0.00
2013-4-2,73,36,62,-100,-100,-100,0,0,100,30.10,29.97,19,2,24,0.00
2013-4-3,74,39,61,-100,-100,-100,0,0,100,30.11,30.01,13,6,15,0.00
2013-4-4,80,42,67,-100,-100,-100,0,0,100,30.12,30.02,13,5,15,0.00
2013-4-5,79,43,67,-100,-100,-100,0,0,100,30.16,30.04,9,5,13,0.00
2013-4-6,89,44,69,-100,-100,-100,0,0,100,30.21,30.09,16,7,21,0.00
2013-4-7,90,41,70,-100,-100,-100,0,0,100,30.21,30.09,14,-8,22,0.00
2013-4-8,90,40,66,-100,-100,-100,0,0,100,30.14,30.00,13,6,22,0.00
2013-4-9,86,40,67,-100,-100,-100,0,0,100,30.11,29.99,15,7,20,0.00
2013-4-10,89,44,68,-100,-100,-100,0,0,100,30.12,30.01,13,7,19,0.00
2013-4-11,85,42,69,-100,-100,-100,0,0,100,30.10,29.98,16,7,21,0.00
2013-4-12,87,42,68,-100,-100,-100,0,0,100,30.03,29.92,17,8,25,0.00
2013-4-13,87,36,66,-100,-100,-100,0,0,100,30.00,29.88,19,8,26,0.00
2013-4-14,92,41,67,-100,-100,-100,0,0,100,29.99,29.87,19,8,26,0.00
2013-4-15,88,41,68,-100,-100,-100,0,0,100,30.09,29.95,15,7,21,0.00
2013-4-16,89,45,69,-100,-100,-100,0,0,100,30.14,30.01,14,7,20,0.00
2013-4-17,81,39,65,-100,-100,-100,0,0,100,30.19,30.07,15,0,18,0.00
2013-4-18,80,37,66,-100,-100,-100,0,0,100,30.18,30.09,14,6,21,0.00
2013-4-19,79,33,66,-100,-100,-100,0,0,100,30.15,30.06,13,-1,23,0.00
2013-4-20,89,38,67,-100,-100,-100,0,0,100,30.11,30.01,18,7,23,0.00
2013-4-21,79,42,67,-100,-100,-100,0,0,100,30.08,29.97,14,6,16,0.00
2013-4-22,90,42,66,-100,-100,-100,0,0,100,30.07,29.95,19,7,26,0.00
2013-4-23,91,42,68,-100,-100,-100,0,0,100,30.09,30.01,14,6,17,0.00
2013-4-24,83,38,66,-100,-100,-100,0,0,100,30.11,30.01,15,-23,18,0.00
2013-4-25,80,38,67,-100,-100,-100,0,0,100,30.10,30.01,12,-2,16,0.00
2013-4-26,80,37,68,-100,-100,-100,0,0,100,30.09,30.01,17,-1,20,0.00
2013-4-27,86,40,70,-100,-100,-100,0,0,100,30.10,29.99,17,7,23,0.00
2013-4-28,87,41,67,-100,-100,-100,0,0,100,30.08,29.96,19,8,28,0.00
2013-4-29,74,36,70,-100,-100,-100,0,0,100,30.04,29.94,13,4,18,0.00
2013-4-30,90,38,68,-100,-100,-100,0,0,100,30.07,29.97,12,5,17,0.00